createdAt,value
2023-02-05T00:01:56.521Z,69.91
2023-02-05T00:03:58.191Z,69.61
2023-02-05T00:05:59.987Z,69.45
2023-02-05T00:08:03.093Z,69.26
2023-02-05T00:10:05.769Z,69.24
2023-02-05T00:12:08.042Z,69.13
2023-02-05T00:14:09.942Z,69.46
2023-02-05T00:16:13.499Z,69.18
2023-02-05T00:18:15.377Z,69.49
2023-02-05T00:20:17.769Z,69.03
2023-02-05T00:22:19.444Z,69.66
2023-02-05T00:24:22.515Z,69.92
2023-02-05T00:26:24.327Z,69.21
2023-02-05T00:28:26.148Z,69.13
2023-02-05T00:30:27.753Z,69.46
2023-02-05T00:32:31.115Z,69.01
2023-02-05T00:34:32.719Z,69.67
2023-02-05T00:36:34.285Z,69.24
2023-02-05T00:38:35.973Z,69.24
2023-02-05T00:40:39.030Z,69.40
2023-02-05T00:42:40.825Z,69.67
2023-02-05T00:44:42.677Z,69.93
2023-02-05T00:46:44.341Z,68.90
2023-02-05T00:48:45.970Z,69.49
2023-02-05T00:50:48.676Z,69.66
2023-02-05T00:52:50.327Z,68.91
2023-02-05T00:54:52.216Z,69.53
2023-02-05T00:56:55.156Z,69.35
2023-02-05T00:58:56.757Z,69.37
2023-02-05T01:00:58.333Z,69.17
2023-02-05T01:03:00.100Z,69.44
2023-02-05T01:05:02.952Z,68.91
2023-02-05T01:07:04.642Z,68.88
2023-02-05T01:09:06.288Z,69.48
2023-02-05T01:11:09.832Z,69.77
2023-02-05T01:13:13.147Z,68.77
2023-02-05T01:15:14.785Z,69.20
2023-02-05T01:17:16.912Z,69.19
2023-02-05T01:19:18.781Z,69.15
2023-02-05T01:21:20.681Z,69.04
2023-02-05T01:23:22.635Z,69.44
2023-02-05T01:25:24.615Z,69.86
2023-02-05T01:27:26.681Z,69.70
2023-02-05T01:29:30.277Z,68.88
2023-02-05T01:31:32.184Z,69.13
2023-02-05T01:33:33.818Z,68.76
2023-02-05T01:35:35.830Z,69.44
2023-02-05T01:37:38.063Z,69.38
2023-02-05T01:39:39.988Z,69.31
2023-02-05T01:41:42.029Z,69.03
2023-02-05T01:43:43.665Z,69.42
2023-02-05T01:46:14.236Z,68.50
2023-02-05T01:48:16.292Z,68.57
2023-02-05T01:50:22.338Z,68.54
2023-02-05T01:52:24.369Z,68.31
2023-02-05T01:54:28.899Z,68.74
2023-02-05T01:56:33.989Z,69.01
2023-02-05T01:58:41.665Z,69.09
2023-02-05T02:00:43.557Z,69.01
2023-02-05T02:02:46.895Z,68.45
2023-02-05T02:04:54.528Z,68.26
2023-02-05T02:06:56.195Z,68.90
2023-02-05T02:08:57.915Z,68.13
2023-02-05T02:11:01.953Z,69.11
2023-02-05T02:13:04.188Z,68.81
2023-02-05T02:15:12.549Z,68.63
2023-02-05T02:17:15.574Z,68.20
2023-02-05T02:19:26.436Z,68.35
2023-02-05T02:21:45.437Z,68.49
2023-02-05T02:24:03.613Z,69.40
2023-02-05T02:26:22.118Z,68.89
2023-02-05T02:28:29.716Z,69.37
2023-02-05T02:30:39.823Z,69.54
2023-02-05T02:32:46.749Z,69.17
2023-02-05T02:34:55.056Z,69.30
2023-02-05T02:37:02.629Z,70.14
2023-02-05T02:39:09.849Z,69.39
2023-02-05T02:41:17.435Z,69.81
2023-02-05T02:43:24.278Z,68.78
2023-02-05T02:45:31.869Z,69.44
2023-02-05T02:47:41.221Z,69.10
2023-02-05T02:49:50.805Z,69.19
2023-02-05T02:51:55.767Z,68.53
2023-02-05T02:54:00.699Z,68.52
2023-02-05T02:56:04.922Z,68.88
2023-02-05T02:58:10.961Z,68.71
2023-02-05T03:00:16.463Z,67.89
2023-02-05T03:02:20.628Z,68.58
2023-02-05T03:04:27.124Z,68.19
2023-02-05T03:06:31.740Z,68.69
2023-02-05T03:08:39.293Z,68.13
2023-02-05T03:10:44.465Z,68.53
2023-02-05T03:12:46.170Z,68.06
2023-02-05T03:14:48.684Z,68.26
2023-02-05T03:16:51.904Z,68.43
2023-02-05T03:18:56.271Z,68.54
2023-02-05T03:21:03.248Z,68.58
2023-02-05T03:23:06.523Z,68.48
2023-02-05T03:25:08.548Z,67.87
2023-02-05T03:27:11.223Z,68.04
2023-02-05T03:29:15.940Z,67.72
2023-02-05T03:31:23.037Z,68.87
2023-02-05T03:33:37.913Z,68.53
2023-02-05T03:35:50.383Z,68.78
2023-02-05T03:38:14.261Z,68.24
2023-02-05T03:40:25.567Z,68.02
2023-02-05T03:42:36.640Z,68.78
2023-02-05T03:44:56.519Z,68.82
2023-02-05T03:47:02.363Z,68.31
2023-02-05T03:49:12.573Z,68.65
2023-02-05T03:51:33.431Z,69.01
2023-02-05T03:53:40.307Z,68.22
2023-02-05T03:55:47.594Z,68.92
2023-02-05T03:57:52.721Z,68.19
2023-02-05T03:59:56.432Z,68.11
2023-02-05T04:01:59.781Z,67.93
2023-02-05T04:04:01.346Z,68.04
2023-02-05T04:06:03.236Z,68.56
2023-02-05T04:08:07.102Z,69.08
2023-02-05T04:10:09.611Z,68.53
2023-02-05T04:12:11.282Z,68.86
2023-02-05T04:14:15.353Z,68.68
2023-02-05T04:16:17.028Z,68.49
2023-02-05T04:18:18.849Z,68.59
2023-02-05T04:20:20.519Z,68.78
2023-02-05T04:22:22.341Z,68.70
2023-02-05T04:24:25.492Z,68.97
2023-02-05T04:26:27.397Z,68.44
2023-02-05T04:28:29.045Z,68.30
2023-02-05T04:30:31.248Z,68.58
2023-02-05T04:32:32.974Z,68.35
2023-02-05T04:34:34.618Z,68.63
2023-02-05T04:36:36.677Z,68.54
2023-02-05T04:38:38.329Z,69.03
2023-02-05T04:40:41.488Z,69.47
2023-02-05T04:42:43.170Z,69.20
2023-02-05T04:44:44.732Z,69.15
2023-02-05T04:46:46.382Z,69.00
2023-02-05T04:48:48.241Z,69.29
2023-02-05T04:50:49.854Z,68.67
2023-02-05T04:52:52.674Z,69.41
2023-02-05T04:54:54.467Z,69.23
2023-02-05T04:56:57.593Z,69.65
2023-02-05T04:58:59.446Z,69.38
2023-02-05T05:01:01.385Z,69.19
2023-02-05T05:03:03.364Z,69.13
2023-02-05T05:05:06.589Z,69.39
2023-02-05T05:07:08.221Z,69.90
2023-02-05T05:09:09.818Z,69.26
2023-02-05T05:11:13.452Z,69.11
2023-02-05T05:13:16.611Z,69.78
2023-02-05T05:15:19.421Z,69.65
2023-02-05T05:17:20.934Z,69.35
2023-02-05T05:19:22.541Z,69.42
2023-02-05T05:21:27.590Z,69.18
2023-02-05T05:23:29.708Z,69.15
2023-02-05T05:25:31.599Z,69.71
2023-02-05T05:27:33.344Z,68.94
2023-02-05T05:29:36.690Z,69.35
2023-02-05T05:31:38.950Z,69.05
2023-02-05T05:33:41.148Z,69.57
2023-02-05T05:35:42.829Z,69.79
2023-02-05T05:37:44.565Z,69.33
2023-02-05T05:39:46.189Z,69.05
2023-02-05T05:41:47.878Z,69.11
2023-02-05T05:43:50.378Z,69.26
2023-02-05T05:45:53.964Z,69.13
2023-02-05T05:47:55.466Z,69.55
2023-02-05T05:49:57.277Z,69.47
2023-02-05T05:51:59.094Z,69.58
2023-02-05T05:54:01.480Z,69.40
2023-02-05T05:56:03.400Z,69.10
2023-02-05T05:58:06.981Z,68.83
2023-02-05T06:00:11.510Z,69.83
2023-02-05T06:02:16.152Z,69.43
2023-02-05T06:04:17.724Z,69.63
2023-02-05T06:06:19.915Z,69.50
2023-02-05T06:08:21.692Z,69.22
2023-02-05T06:10:23.262Z,69.26
2023-02-05T06:12:24.820Z,69.35
2023-02-05T06:14:26.645Z,69.02
2023-02-05T06:16:28.208Z,69.70
2023-02-05T06:18:31.374Z,69.12
2023-02-05T06:20:33.379Z,69.22
2023-02-05T06:22:35.798Z,69.08
2023-02-05T06:24:37.574Z,69.51
2023-02-05T06:26:39.401Z,69.20
2023-02-05T06:28:41.245Z,69.47
2023-02-05T06:30:42.780Z,69.78
2023-02-05T06:32:44.281Z,69.75
2023-02-05T06:34:47.741Z,69.52
2023-02-05T06:36:49.376Z,69.84
2023-02-05T06:38:50.957Z,69.91
2023-02-05T06:40:52.851Z,69.63
2023-02-05T06:42:55.236Z,70.72
2023-02-05T06:44:57.526Z,70.27
2023-02-05T06:46:59.346Z,70.72
2023-02-05T06:49:01.279Z,70.37
2023-02-05T06:51:04.897Z,70.84
2023-02-05T06:53:06.458Z,70.65
2023-02-05T06:55:08.766Z,70.73
2023-02-05T06:57:11.003Z,71.06
2023-02-05T06:59:12.632Z,71.17
2023-02-05T07:01:14.572Z,71.22
2023-02-05T07:03:16.467Z,71.43
2023-02-05T07:05:18.490Z,71.13
2023-02-05T07:07:21.714Z,71.52
2023-02-05T07:09:23.387Z,71.59
2023-02-05T07:11:26.279Z,71.41
2023-02-05T07:13:29.552Z,71.33
2023-02-05T07:15:31.263Z,70.96
2023-02-05T07:17:34.127Z,71.55
2023-02-05T07:19:36.245Z,71.45
2023-02-05T07:21:38.307Z,70.92
2023-02-05T07:23:42.224Z,71.43
2023-02-05T07:25:43.703Z,71.21
2023-02-05T07:27:47.764Z,71.14
2023-02-05T07:29:49.505Z,71.17
2023-02-05T07:31:52.012Z,71.20
2023-02-05T07:33:53.908Z,70.93
2023-02-05T07:35:55.570Z,71.36
2023-02-05T07:37:57.404Z,71.44
2023-02-05T07:40:00.485Z,71.28
2023-02-05T07:42:02.158Z,71.11
2023-02-05T07:44:03.891Z,71.00
2023-02-05T07:46:07.696Z,70.90
2023-02-05T07:48:09.214Z,70.75
2023-02-05T07:50:10.989Z,70.42
2023-02-05T07:52:13.104Z,71.17
2023-02-05T07:54:15.033Z,70.71
2023-02-05T07:56:18.944Z,71.15
2023-02-05T07:58:20.968Z,70.41
2023-02-05T08:00:23.192Z,71.10
2023-02-05T08:02:25.017Z,70.82
2023-02-05T08:04:26.735Z,70.23
2023-02-05T08:06:29.072Z,70.47
2023-02-05T08:08:30.677Z,70.48
2023-02-05T08:10:32.354Z,70.64
2023-02-05T08:12:35.461Z,70.47
2023-02-05T08:14:37.330Z,70.29
2023-02-05T08:16:38.879Z,70.60
2023-02-05T08:18:40.673Z,70.35
2023-02-05T08:20:42.512Z,70.67
2023-02-05T08:22:44.312Z,70.52
2023-02-05T08:24:46.053Z,70.40
2023-02-05T08:26:47.970Z,70.16
2023-02-05T08:28:51.136Z,70.55
2023-02-05T08:30:53.193Z,69.64
2023-02-05T08:32:54.890Z,69.88
2023-02-05T08:34:56.435Z,70.65
2023-02-05T08:36:57.973Z,69.72
2023-02-05T08:38:59.445Z,69.61
2023-02-05T08:41:04.952Z,69.50
2023-02-05T08:43:06.835Z,69.83
2023-02-05T08:45:10.553Z,69.70
2023-02-05T08:47:12.438Z,69.75
2023-02-05T08:49:14.030Z,69.54
2023-02-05T08:51:16.097Z,68.87
2023-02-05T08:53:17.947Z,69.27
2023-02-05T08:55:19.626Z,69.19
2023-02-05T08:57:21.354Z,68.33
2023-02-05T08:59:23.028Z,67.97
2023-02-05T09:01:25.978Z,67.82
2023-02-05T09:03:27.782Z,66.79
2023-02-05T09:05:29.288Z,67.38
2023-02-05T09:07:31.613Z,67.19
2023-02-05T09:09:33.620Z,67.59
2023-02-05T09:11:35.666Z,67.40
2023-02-05T09:13:37.751Z,66.87
2023-02-05T09:15:41.772Z,66.49
2023-02-05T09:17:45.057Z,66.56
2023-02-05T09:19:48.157Z,66.11
2023-02-05T09:21:49.686Z,66.25
2023-02-05T09:23:51.519Z,66.10
2023-02-05T09:25:53.125Z,65.53
2023-02-05T09:27:54.982Z,65.21
2023-02-05T09:29:56.941Z,65.04
2023-02-05T09:31:58.586Z,65.44
2023-02-05T09:34:03.676Z,65.38
2023-02-05T09:36:06.456Z,65.20
2023-02-05T09:38:08.184Z,64.07
2023-02-05T09:40:20.939Z,65.43
2023-02-05T09:42:33.452Z,64.83
2023-02-05T09:44:52.816Z,66.13
2023-02-05T09:47:05.230Z,65.40
2023-02-05T09:49:17.190Z,64.90
2023-02-05T09:51:22.017Z,63.48
2023-02-05T09:53:25.568Z,63.90
2023-02-05T09:55:30.137Z,63.76
2023-02-05T09:57:35.575Z,64.17
2023-02-05T09:59:39.938Z,63.42
2023-02-05T10:01:47.876Z,63.29
2023-02-05T10:03:54.522Z,62.20
2023-02-05T10:06:25.356Z,63.72
2023-02-05T10:08:37.383Z,63.54
2023-02-05T10:10:44.324Z,62.70
2023-02-05T10:13:01.332Z,62.99
2023-02-05T10:15:18.811Z,63.38
2023-02-05T10:17:36.262Z,63.82
2023-02-05T10:19:57.389Z,62.98
2023-02-05T10:22:12.418Z,62.92
2023-02-05T10:24:30.416Z,63.24
2023-02-05T10:26:40.848Z,62.30
2023-02-05T10:29:01.190Z,63.49
2023-02-05T10:31:12.226Z,61.97
2023-02-05T10:33:18.541Z,60.90
2023-02-05T10:35:23.823Z,61.59
2023-02-05T10:37:35.914Z,62.99
2023-02-05T10:39:37.616Z,60.80
2023-02-05T10:41:45.078Z,61.05
2023-02-05T10:43:50.619Z,61.07
2023-02-05T10:45:54.933Z,60.30
2023-02-05T10:48:07.949Z,61.03
2023-02-05T10:50:19.930Z,61.93
2023-02-05T10:52:21.606Z,61.24
2023-02-05T10:54:28.169Z,61.30
2023-02-05T10:56:30.033Z,60.36
2023-02-05T10:58:38.565Z,61.26
2023-02-05T11:00:40.768Z,61.06
2023-02-05T11:02:46.375Z,60.26
2023-02-05T11:04:54.839Z,60.83
2023-02-05T11:06:56.988Z,60.06
2023-02-05T11:08:59.168Z,60.06
2023-02-05T11:11:05.024Z,59.63
2023-02-05T11:13:18.837Z,61.61
2023-02-05T11:15:24.356Z,59.51
2023-02-05T11:17:31.897Z,60.10
2023-02-05T11:19:36.255Z,60.14
2023-02-05T11:21:53.675Z,60.97
2023-02-05T11:23:57.690Z,59.70
2023-02-05T11:26:00.977Z,60.49
2023-02-05T11:28:05.394Z,60.86
2023-02-05T11:30:37.641Z,61.38
2023-02-05T11:32:41.314Z,59.46
2023-02-05T11:34:42.838Z,60.49
2023-02-05T11:36:50.256Z,59.84
2023-02-05T11:38:54.068Z,58.27
2023-02-05T11:40:58.190Z,59.39
2023-02-05T11:43:16.791Z,60.61
2023-02-05T11:45:18.554Z,57.85
2023-02-05T11:47:26.826Z,58.39
2023-02-05T11:49:33.313Z,57.62
2023-02-05T11:51:44.188Z,59.25
2023-02-05T11:53:53.306Z,59.98
2023-02-05T11:55:58.170Z,58.27
2023-02-05T11:58:01.743Z,57.12
2023-02-05T12:00:20.839Z,59.67
2023-02-05T12:02:30.585Z,58.89
2023-02-05T12:04:43.992Z,58.44
2023-02-05T12:06:51.259Z,57.78
2023-02-05T12:08:53.515Z,57.87
2023-02-05T12:11:04.764Z,59.60
2023-02-05T12:13:18.243Z,59.45
2023-02-05T12:15:25.558Z,58.49
2023-02-05T12:17:39.914Z,59.38
2023-02-05T12:19:52.484Z,59.07
2023-02-05T12:22:02.544Z,58.30
2023-02-05T12:24:40.419Z,59.09
2023-02-05T12:26:44.839Z,56.99
2023-02-05T12:28:54.711Z,58.09
2023-02-05T12:31:08.603Z,58.23
2023-02-05T12:33:28.952Z,59.06
2023-02-05T12:35:47.023Z,59.13
2023-02-05T12:37:59.944Z,58.73
2023-02-05T12:40:14.489Z,58.93
2023-02-05T12:42:26.798Z,58.26
2023-02-05T12:44:46.118Z,57.76
2023-02-05T12:47:09.068Z,57.83
2023-02-05T12:49:27.992Z,58.05
2023-02-05T12:51:49.232Z,57.42
2023-02-05T12:54:07.884Z,57.51
2023-02-05T12:56:47.256Z,57.47
2023-02-05T12:58:54.748Z,57.46
2023-02-05T13:01:04.119Z,57.36
2023-02-05T13:03:17.846Z,56.91
2023-02-05T13:05:22.963Z,56.38
2023-02-05T13:07:32.093Z,57.63
2023-02-05T13:09:45.854Z,57.03
2023-02-05T13:11:54.965Z,57.02
2023-02-05T13:14:01.912Z,56.46
2023-02-05T13:16:07.584Z,57.08
2023-02-05T13:18:17.878Z,58.14
2023-02-05T13:20:24.363Z,56.76
2023-02-05T13:22:30.530Z,56.67
2023-02-05T13:24:38.945Z,57.58
2023-02-05T13:26:46.039Z,57.13
2023-02-05T13:28:51.252Z,56.49
2023-02-05T13:30:56.150Z,56.76
2023-02-05T13:33:02.090Z,55.64
2023-02-05T13:35:07.531Z,54.41
2023-02-05T13:37:29.677Z,56.89
2023-02-05T13:40:01.077Z,57.59
2023-02-05T13:42:17.745Z,56.75
2023-02-05T13:44:43.472Z,57.76
2023-02-05T13:47:23.940Z,58.29
2023-02-05T13:49:45.425Z,56.67
2023-02-05T13:52:02.072Z,56.90
2023-02-05T13:54:23.012Z,57.39
2023-02-05T13:56:55.243Z,57.62
2023-02-05T13:59:00.040Z,55.85
2023-02-05T14:01:06.282Z,55.38
2023-02-05T14:03:09.812Z,55.33
2023-02-05T14:05:13.093Z,54.78
2023-02-05T14:07:22.746Z,55.45
2023-02-05T14:09:33.130Z,55.51
2023-02-05T14:11:48.312Z,57.10
2023-02-05T14:14:22.745Z,57.32
2023-02-05T14:16:35.197Z,56.43
2023-02-05T14:18:49.141Z,55.80
2023-02-05T14:20:50.805Z,54.89
2023-02-05T14:22:54.985Z,55.04
2023-02-05T14:24:56.537Z,54.79
2023-02-05T14:26:58.384Z,54.67
2023-02-05T14:29:00.083Z,54.73
2023-02-05T14:31:02.063Z,55.06
2023-02-05T14:33:25.597Z,55.69
2023-02-05T14:35:29.592Z,55.23
2023-02-05T14:37:35.866Z,56.14
2023-02-05T14:39:39.026Z,55.17
2023-02-05T14:41:51.764Z,57.16
2023-02-05T14:43:58.102Z,55.68
2023-02-05T14:46:04.788Z,55.40
2023-02-05T14:48:06.715Z,55.09
2023-02-05T14:50:18.262Z,54.97
2023-02-05T14:52:27.595Z,55.56
2023-02-05T14:54:31.898Z,55.45
2023-02-05T14:56:40.553Z,56.72
2023-02-05T14:58:43.084Z,55.79
2023-02-05T15:00:46.306Z,56.47
2023-02-05T15:03:18.281Z,58.30
2023-02-05T15:05:27.659Z,56.77
2023-02-05T15:07:29.688Z,56.81
2023-02-05T15:09:40.650Z,57.52
2023-02-05T15:11:55.443Z,57.71
2023-02-05T15:14:25.603Z,57.72
2023-02-05T15:16:27.359Z,57.38
2023-02-05T15:18:32.502Z,57.41
2023-02-05T15:20:36.893Z,57.02
2023-02-05T15:22:45.893Z,56.95
2023-02-05T15:24:50.969Z,56.62
2023-02-05T15:26:59.582Z,57.94
2023-02-05T15:29:04.573Z,57.31
2023-02-05T15:31:15.240Z,57.40
2023-02-05T15:33:25.329Z,57.25
2023-02-05T15:35:30.563Z,57.85
2023-02-05T15:37:37.378Z,57.26
2023-02-05T15:39:51.173Z,58.36
2023-02-05T15:41:57.702Z,58.52
2023-02-05T15:44:01.600Z,57.67
2023-02-05T15:46:07.589Z,58.00
2023-02-05T15:48:13.660Z,58.02
2023-02-05T15:50:16.232Z,58.14
2023-02-05T15:52:21.271Z,58.73
2023-02-05T15:54:23.426Z,58.40
2023-02-05T15:56:27.430Z,57.90
2023-02-05T15:58:31.653Z,58.30
2023-02-05T16:00:37.764Z,58.61
2023-02-05T16:02:39.400Z,58.50
2023-02-05T16:04:41.848Z,58.18
2023-02-05T16:06:43.478Z,59.00
2023-02-05T16:08:46.624Z,58.48
2023-02-05T16:10:53.924Z,59.29
2023-02-05T16:12:59.714Z,59.26
2023-02-05T16:15:06.250Z,58.95
2023-02-05T16:17:12.768Z,59.23
2023-02-05T16:19:21.062Z,59.14
2023-02-05T16:21:25.710Z,59.41
2023-02-05T16:23:32.415Z,59.32
2023-02-05T16:25:39.055Z,59.21
2023-02-05T16:27:44.589Z,59.53
2023-02-05T16:29:51.960Z,59.41
2023-02-05T16:32:02.042Z,60.12
2023-02-05T16:34:08.330Z,59.71
2023-02-05T16:36:17.562Z,60.45
2023-02-05T16:38:23.313Z,60.05
2023-02-05T16:40:32.699Z,60.66
2023-02-05T16:42:37.619Z,60.30
2023-02-05T16:44:43.620Z,60.40
2023-02-05T16:47:04.216Z,60.28
2023-02-05T16:49:29.501Z,60.49
2023-02-05T16:51:37.593Z,60.37
2023-02-05T16:53:49.780Z,60.71
2023-02-05T16:55:55.357Z,60.57
2023-02-05T16:58:05.730Z,60.94
2023-02-05T17:00:20.552Z,61.18
2023-02-05T17:02:29.637Z,61.33
2023-02-05T17:04:35.281Z,60.76
2023-02-05T17:06:38.479Z,61.00
2023-02-05T17:08:43.999Z,61.23
2023-02-05T17:10:51.151Z,61.61
2023-02-05T17:12:55.348Z,61.43
2023-02-05T17:15:00.061Z,61.17
2023-02-05T17:17:03.796Z,61.08
2023-02-05T17:19:22.840Z,61.51
2023-02-05T17:21:37.623Z,61.48
2023-02-05T17:23:39.392Z,61.77
2023-02-05T17:25:49.216Z,61.81
2023-02-05T17:27:51.839Z,61.98
2023-02-05T17:29:53.725Z,61.85
2023-02-05T17:31:55.674Z,62.18
2023-02-05T17:33:58.997Z,62.38
2023-02-05T17:36:01.643Z,62.63
2023-02-05T17:38:05.083Z,62.66
2023-02-05T17:40:07.366Z,62.18
2023-02-05T17:42:19.290Z,62.34
2023-02-05T17:44:21.016Z,62.31
2023-02-05T17:46:24.054Z,62.28
2023-02-05T17:48:25.800Z,63.08
2023-02-05T17:50:27.687Z,62.93
2023-02-05T17:52:29.257Z,63.35
2023-02-05T17:54:32.410Z,62.92
2023-02-05T17:56:34.247Z,63.17
2023-02-05T17:58:35.894Z,63.32
2023-02-05T18:00:37.538Z,63.02
2023-02-05T18:02:39.102Z,62.95
2023-02-05T18:04:43.121Z,62.86
2023-02-05T18:06:46.190Z,63.10
2023-02-05T18:08:48.054Z,63.52
2023-02-05T18:10:51.010Z,63.26
2023-02-05T18:12:53.848Z,63.32
2023-02-05T18:14:55.745Z,63.50
2023-02-05T18:16:57.324Z,63.26
2023-02-05T18:18:59.051Z,62.94
2023-02-05T18:21:00.820Z,63.76
2023-02-05T18:23:03.174Z,63.82
2023-02-05T18:25:06.246Z,63.66
2023-02-05T18:27:09.783Z,64.10
2023-02-05T18:29:11.318Z,63.96
2023-02-05T18:31:14.375Z,63.42
2023-02-05T18:33:16.012Z,63.67
2023-02-05T18:35:17.659Z,64.04
2023-02-05T18:37:19.713Z,63.75
2023-02-05T18:39:21.297Z,63.43
2023-02-05T18:41:22.802Z,63.94
2023-02-05T18:43:25.665Z,64.07
2023-02-05T18:45:27.302Z,64.25
2023-02-05T18:47:28.828Z,63.63
2023-02-05T18:49:30.576Z,63.57
2023-02-05T18:51:32.202Z,63.84
2023-02-05T18:53:35.085Z,63.51
2023-02-05T18:55:37.071Z,64.46
2023-02-05T18:57:39.010Z,64.24
2023-02-05T18:59:41.920Z,64.25
2023-02-05T19:01:43.576Z,63.87
2023-02-05T19:03:46.938Z,64.61
2023-02-05T19:05:48.491Z,64.27
2023-02-05T19:07:50.034Z,63.65
2023-02-05T19:09:51.740Z,64.44
2023-02-05T19:11:54.311Z,64.14
2023-02-05T19:13:56.878Z,63.72
2023-02-05T19:16:06.062Z,63.98
2023-02-05T19:18:07.875Z,64.01
2023-02-05T19:20:10.348Z,64.29
2023-02-05T19:22:11.993Z,63.98
2023-02-05T19:24:14.236Z,63.81
2023-02-05T19:26:18.269Z,64.58
2023-02-05T19:28:19.935Z,63.77
2023-02-05T19:30:22.927Z,63.67
2023-02-05T19:32:26.049Z,63.81
2023-02-05T19:34:27.585Z,63.97
2023-02-05T19:36:29.841Z,64.61
2023-02-05T19:38:31.824Z,64.65
2023-02-05T19:40:35.379Z,64.62
2023-02-05T19:42:39.139Z,63.87
2023-02-05T19:44:41.862Z,64.10
2023-02-05T19:46:44.490Z,64.09
2023-02-05T19:48:48.152Z,64.20
2023-02-05T19:50:49.703Z,64.06
2023-02-05T19:52:52.548Z,64.63
2023-02-05T19:54:54.108Z,63.76
2023-02-05T19:56:56.012Z,64.69
2023-02-05T19:58:57.947Z,64.82
2023-02-05T20:00:59.534Z,64.27
2023-02-05T20:03:01.249Z,64.78
2023-02-05T20:05:04.933Z,64.56
2023-02-05T20:07:06.503Z,64.86
2023-02-05T20:09:10.065Z,64.93
2023-02-05T20:11:13.075Z,64.52
2023-02-05T20:13:15.040Z,64.40
2023-02-05T20:15:16.929Z,64.50
2023-02-05T20:17:18.744Z,65.23
2023-02-05T20:19:21.951Z,64.77
2023-02-05T20:21:26.485Z,64.98
2023-02-05T20:23:28.130Z,64.99
2023-02-05T20:25:30.268Z,65.07
2023-02-05T20:27:32.119Z,64.67
2023-02-05T20:29:36.310Z,64.69
2023-02-05T20:31:39.670Z,65.00
2023-02-05T20:33:41.813Z,64.83
2023-02-05T20:35:43.496Z,65.21
2023-02-05T20:37:46.462Z,65.04
2023-02-05T20:39:48.098Z,64.90
2023-02-05T20:41:51.803Z,65.60
2023-02-05T20:43:53.592Z,65.33
2023-02-05T20:45:55.217Z,64.67
2023-02-05T20:47:56.740Z,65.18
2023-02-05T20:49:58.246Z,65.27
2023-02-05T20:51:59.792Z,65.29
2023-02-05T20:54:02.807Z,65.16
2023-02-05T20:56:05.944Z,64.99
2023-02-05T20:58:07.447Z,65.14
2023-02-05T21:00:10.523Z,65.22
2023-02-05T21:02:12.386Z,65.12
2023-02-05T21:04:14.051Z,65.78
2023-02-05T21:06:17.521Z,64.99
2023-02-05T21:08:19.117Z,65.30
2023-02-05T21:10:21.998Z,65.49
2023-02-05T21:12:23.531Z,65.01
2023-02-05T21:14:25.141Z,65.48
2023-02-05T21:16:29.596Z,65.61
2023-02-05T21:18:31.928Z,65.57
2023-02-05T21:20:33.981Z,64.73
2023-02-05T21:22:35.595Z,65.45
2023-02-05T21:24:37.103Z,65.14
2023-02-05T21:26:41.820Z,64.91
2023-02-05T21:28:43.928Z,64.53
2023-02-05T21:30:45.548Z,65.17
2023-02-05T21:32:47.383Z,64.69
2023-02-05T21:34:48.993Z,64.75
2023-02-05T21:36:51.317Z,65.08
2023-02-05T21:38:54.460Z,64.96
2023-02-05T21:40:56.725Z,64.98
2023-02-05T21:42:59.640Z,64.78
2023-02-05T21:45:01.692Z,64.73
2023-02-05T21:47:03.652Z,64.76
2023-02-05T21:49:05.669Z,64.68
2023-02-05T21:51:10.254Z,64.60
2023-02-05T21:53:12.093Z,64.35
2023-02-05T21:55:13.814Z,64.16
2023-02-05T21:57:15.452Z,64.45
2023-02-05T21:59:18.649Z,64.58
2023-02-05T22:01:23.013Z,65.00
2023-02-05T22:03:24.654Z,64.35
2023-02-05T22:05:26.735Z,64.40
2023-02-05T22:07:28.562Z,64.50
2023-02-05T22:09:30.137Z,64.58
2023-02-05T22:11:32.020Z,64.44
2023-02-05T22:13:35.125Z,64.97
2023-02-05T22:15:38.077Z,64.75
2023-02-05T22:17:40.011Z,64.10
2023-02-05T22:19:41.863Z,64.15
2023-02-05T22:21:43.472Z,63.97
2023-02-05T22:23:47.029Z,63.71
2023-02-05T22:25:48.678Z,64.09
2023-02-05T22:27:50.626Z,63.71
2023-02-05T22:29:52.424Z,64.53
2023-02-05T22:31:55.520Z,64.60
2023-02-05T22:33:57.421Z,64.27
2023-02-05T22:35:59.486Z,65.07
2023-02-05T22:38:01.327Z,65.22
2023-02-05T22:40:03.334Z,65.33
2023-02-05T22:42:05.182Z,65.51
2023-02-05T22:44:08.483Z,65.40
2023-02-05T22:46:12.386Z,65.18
2023-02-05T22:48:15.624Z,64.52
2023-02-05T22:50:17.943Z,64.67
2023-02-05T22:52:19.547Z,64.56
2023-02-05T22:54:21.417Z,64.80
2023-02-05T22:56:23.455Z,64.68
2023-02-05T22:58:24.964Z,64.50
2023-02-05T23:00:26.791Z,65.41
2023-02-05T23:02:28.405Z,64.59
2023-02-05T23:04:31.600Z,65.06
2023-02-05T23:06:34.745Z,64.77
2023-02-05T23:08:36.430Z,65.27
2023-02-05T23:10:38.089Z,64.78
2023-02-05T23:12:39.637Z,64.62
2023-02-05T23:14:41.469Z,64.62
2023-02-05T23:16:46.741Z,64.73
2023-02-05T23:18:52.185Z,64.79
2023-02-05T23:20:57.612Z,65.48
2023-02-05T23:23:00.252Z,65.51
2023-02-05T23:25:02.117Z,65.31
2023-02-05T23:27:04.044Z,65.30
2023-02-05T23:29:05.782Z,65.10
2023-02-05T23:31:08.305Z,65.73
2023-02-05T23:33:09.993Z,65.25
2023-02-05T23:35:11.521Z,65.92
2023-02-05T23:37:14.726Z,66.15
2023-02-05T23:39:16.724Z,65.81
2023-02-05T23:41:18.783Z,66.02
2023-02-05T23:43:21.048Z,65.73
2023-02-05T23:45:22.928Z,65.91
2023-02-05T23:47:24.450Z,66.48
2023-02-05T23:49:25.974Z,66.48
2023-02-05T23:51:27.524Z,66.20
2023-02-05T23:53:30.434Z,66.94
2023-02-05T23:55:32.436Z,67.20
2023-02-05T23:57:33.976Z,66.97
2023-02-05T23:59:35.703Z,67.55
